createdAt,value
2018-03-26T00:00:17.953Z,952.36
2018-03-26T00:01:17.937Z,952.33
2018-03-26T00:02:17.903Z,952.32
2018-03-26T00:03:17.880Z,952.34
2018-03-26T00:04:17.856Z,952.36
2018-03-26T00:05:17.833Z,952.40
2018-03-26T00:06:17.808Z,952.39
2018-03-26T00:07:17.785Z,952.41
2018-03-26T00:08:17.760Z,952.45
2018-03-26T00:09:17.737Z,952.46
2018-03-26T00:10:17.713Z,952.46
2018-03-26T00:11:17.690Z,952.44
2018-03-26T00:12:17.666Z,952.48
2018-03-26T00:13:17.642Z,952.47
2018-03-26T00:14:17.617Z,952.51
2018-03-26T00:15:17.597Z,952.53
2018-03-26T00:16:17.572Z,952.52
2018-03-26T00:17:17.546Z,952.51
2018-03-26T00:18:17.521Z,952.55
2018-03-26T00:19:17.497Z,952.53
2018-03-26T00:20:17.474Z,952.52
2018-03-26T00:21:17.451Z,952.55
2018-03-26T00:22:17.424Z,952.56
2018-03-26T00:23:17.401Z,952.55
2018-03-26T00:24:17.378Z,952.54
2018-03-26T00:25:17.353Z,952.57
2018-03-26T00:26:17.329Z,952.57
2018-03-26T00:27:17.306Z,952.60
2018-03-26T00:28:17.285Z,952.55
2018-03-26T00:29:17.258Z,952.53
2018-03-26T00:30:17.234Z,952.57
2018-03-26T00:31:17.210Z,952.56
2018-03-26T00:32:17.185Z,952.57
2018-03-26T00:33:17.163Z,952.55
2018-03-26T00:34:17.138Z,952.56
2018-03-26T00:35:17.116Z,952.51
2018-03-26T00:36:17.091Z,952.56
2018-03-26T00:37:17.070Z,952.60
2018-03-26T00:38:17.804Z,952.57
2018-03-26T00:39:17.021Z,952.57
2018-03-26T00:40:16.997Z,952.57
2018-03-26T00:41:16.972Z,952.63
2018-03-26T00:42:16.947Z,952.62
2018-03-26T00:43:16.924Z,952.61
2018-03-26T00:44:16.901Z,952.68
2018-03-26T00:45:16.878Z,952.66
2018-03-26T00:46:16.854Z,952.67
2018-03-26T00:47:16.829Z,952.67
2018-03-26T00:48:16.806Z,952.67
2018-03-26T00:49:16.783Z,952.70
2018-03-26T00:50:16.758Z,952.72
2018-03-26T00:51:16.738Z,952.68
2018-03-26T00:52:16.716Z,952.70
2018-03-26T00:53:16.689Z,952.71
2018-03-26T00:54:16.663Z,952.70
2018-03-26T00:55:16.647Z,952.70
2018-03-26T00:56:16.617Z,952.70
2018-03-26T00:57:16.592Z,952.72
2018-03-26T00:58:16.569Z,952.74
2018-03-26T00:59:16.546Z,952.79
2018-03-26T01:00:16.522Z,952.77
2018-03-26T01:01:16.498Z,952.78
2018-03-26T01:02:16.474Z,952.77
2018-03-26T01:03:16.451Z,952.82
2018-03-26T01:04:16.428Z,952.80
2018-03-26T01:05:16.404Z,952.81
2018-03-26T01:06:16.379Z,952.82
2018-03-26T01:07:16.356Z,952.80
2018-03-26T01:08:16.333Z,952.80
2018-03-26T01:09:16.309Z,952.82
2018-03-26T01:10:16.285Z,952.79
2018-03-26T01:11:16.261Z,952.81
2018-03-26T01:12:16.237Z,952.80
2018-03-26T01:13:16.218Z,952.84
2018-03-26T01:14:16.190Z,952.85
2018-03-26T01:15:16.168Z,952.85
2018-03-26T01:16:16.143Z,952.81
2018-03-26T01:17:16.124Z,952.86
2018-03-26T01:18:16.096Z,952.82
2018-03-26T01:19:16.071Z,952.87
2018-03-26T01:20:16.048Z,952.85
2018-03-26T01:21:16.025Z,952.83
2018-03-26T01:22:16.001Z,952.83
2018-03-26T01:23:15.979Z,952.85
2018-03-26T01:24:15.954Z,952.80
2018-03-26T01:25:15.930Z,952.81
2018-03-26T01:26:15.906Z,952.78
2018-03-26T01:27:15.891Z,952.80
2018-03-26T01:28:15.859Z,952.82
2018-03-26T01:29:15.836Z,952.80
2018-03-26T01:30:15.811Z,952.78
2018-03-26T01:31:15.788Z,952.81
2018-03-26T01:32:15.765Z,952.79
2018-03-26T01:33:15.741Z,952.83
2018-03-26T01:34:15.716Z,952.85
2018-03-26T01:35:15.694Z,952.81
2018-03-26T01:36:15.669Z,952.78
2018-03-26T01:37:15.646Z,952.79
2018-03-26T01:38:15.677Z,952.79
2018-03-26T01:39:15.598Z,952.78
2018-03-26T01:40:15.575Z,952.81
2018-03-26T01:41:15.554Z,952.80
2018-03-26T01:42:15.530Z,952.82
2018-03-26T01:43:15.502Z,952.83
2018-03-26T01:44:15.480Z,952.86
2018-03-26T01:45:15.456Z,952.83
2018-03-26T01:46:15.430Z,952.81
2018-03-26T01:47:15.408Z,952.83
2018-03-26T01:48:15.385Z,952.88
2018-03-26T01:49:15.361Z,952.87
2018-03-26T01:50:15.336Z,952.84
2018-03-26T01:51:16.062Z,952.85
2018-03-26T01:52:15.288Z,952.84
2018-03-26T01:53:15.263Z,952.86
2018-03-26T01:54:15.241Z,952.87
2018-03-26T01:55:15.217Z,952.89
2018-03-26T01:56:15.193Z,952.86
2018-03-26T01:57:15.169Z,952.84
2018-03-26T01:58:15.145Z,952.87
2018-03-26T01:59:15.121Z,952.86
2018-03-26T02:00:15.103Z,952.86
2018-03-26T02:01:15.073Z,952.86
2018-03-26T02:02:15.802Z,952.91
2018-03-26T02:03:15.026Z,952.89
2018-03-26T02:04:15.002Z,952.92
2018-03-26T02:05:14.978Z,952.93
2018-03-26T02:06:14.953Z,952.97
2018-03-26T02:07:14.928Z,952.96
2018-03-26T02:08:14.906Z,952.95
2018-03-26T02:09:14.882Z,952.98
2018-03-26T02:10:14.858Z,952.97
2018-03-26T02:11:14.834Z,952.99
2018-03-26T02:12:14.813Z,953.01
2018-03-26T02:13:14.787Z,952.97
2018-03-26T02:14:14.761Z,952.93
2018-03-26T02:15:14.739Z,952.99
2018-03-26T02:16:14.715Z,953.01
2018-03-26T02:17:14.691Z,953.00
2018-03-26T02:18:14.665Z,952.99
2018-03-26T02:19:14.644Z,952.99
2018-03-26T02:20:14.619Z,953.00
2018-03-26T02:21:14.595Z,952.99
2018-03-26T02:22:14.570Z,953.00
2018-03-26T02:23:14.551Z,953.00
2018-03-26T02:24:14.524Z,953.00
2018-03-26T02:25:14.498Z,953.00
2018-03-26T02:26:14.479Z,953.03
2018-03-26T02:27:14.450Z,952.98
2018-03-26T02:28:15.176Z,953.02
2018-03-26T02:29:14.401Z,953.01
2018-03-26T02:30:14.379Z,953.03
2018-03-26T02:31:14.355Z,953.00
2018-03-26T02:32:14.329Z,953.00
2018-03-26T02:33:14.307Z,953.00
2018-03-26T02:34:14.281Z,953.03
2018-03-26T02:35:14.258Z,953.00
2018-03-26T02:36:14.233Z,953.01
2018-03-26T02:37:14.209Z,953.06
2018-03-26T02:38:14.184Z,953.04
2018-03-26T02:39:14.161Z,953.02
2018-03-26T02:40:14.136Z,953.07
2018-03-26T02:41:14.112Z,953.06
2018-03-26T02:42:14.087Z,953.05
2018-03-26T02:43:14.064Z,953.06
2018-03-26T02:44:14.041Z,953.07
2018-03-26T02:45:14.016Z,953.05
2018-03-26T02:46:13.991Z,953.07
2018-03-26T02:47:13.968Z,953.11
2018-03-26T02:48:13.959Z,953.12
2018-03-26T02:49:14.670Z,953.11
2018-03-26T02:50:13.895Z,953.10
2018-03-26T02:51:13.871Z,953.15
2018-03-26T02:52:13.848Z,953.17
2018-03-26T02:53:13.820Z,953.16
2018-03-26T02:54:13.799Z,953.18
2018-03-26T02:55:13.774Z,953.17
2018-03-26T02:56:13.749Z,953.17
2018-03-26T02:57:13.725Z,953.16
2018-03-26T02:58:13.698Z,953.14
2018-03-26T02:59:13.676Z,953.16
2018-03-26T03:00:13.651Z,953.15
2018-03-26T03:01:13.629Z,953.16
2018-03-26T03:02:13.602Z,953.18
2018-03-26T03:03:13.579Z,953.16
2018-03-26T03:04:13.557Z,953.17
2018-03-26T03:05:13.529Z,953.20
2018-03-26T03:06:13.504Z,953.16
2018-03-26T03:07:13.480Z,953.18
2018-03-26T03:08:13.456Z,953.21
2018-03-26T03:09:13.431Z,953.18
2018-03-26T03:10:13.406Z,953.20
2018-03-26T03:11:13.382Z,953.15
2018-03-26T03:12:13.357Z,953.15
2018-03-26T03:13:13.334Z,953.17
2018-03-26T03:14:13.308Z,953.18
2018-03-26T03:15:13.285Z,953.16
2018-03-26T03:16:13.260Z,953.19
2018-03-26T03:17:13.251Z,953.20
2018-03-26T03:18:13.210Z,953.19
2018-03-26T03:19:13.186Z,953.21
2018-03-26T03:20:13.162Z,953.20
2018-03-26T03:21:13.138Z,953.20
2018-03-26T03:22:13.112Z,953.22
2018-03-26T03:23:13.089Z,953.24
2018-03-26T03:24:13.063Z,953.24
2018-03-26T03:25:13.043Z,953.21
2018-03-26T03:26:13.014Z,953.24
2018-03-26T03:27:12.988Z,953.22
2018-03-26T03:28:12.966Z,953.23
2018-03-26T03:29:12.941Z,953.22
2018-03-26T03:30:12.918Z,953.26
2018-03-26T03:31:12.895Z,953.25
2018-03-26T03:32:12.868Z,953.28
2018-03-26T03:33:12.843Z,953.24
2018-03-26T03:34:12.822Z,953.29
2018-03-26T03:35:12.798Z,953.27
2018-03-26T03:36:12.769Z,953.27
2018-03-26T03:37:12.745Z,953.29
2018-03-26T03:38:12.718Z,953.26
2018-03-26T03:39:12.695Z,953.27
2018-03-26T03:40:12.671Z,953.26
2018-03-26T03:41:12.645Z,953.28
2018-03-26T03:42:12.621Z,953.27
2018-03-26T03:43:12.596Z,953.29
2018-03-26T03:44:12.572Z,953.30
2018-03-26T03:45:12.548Z,953.33
2018-03-26T03:46:12.521Z,953.33
2018-03-26T03:47:12.499Z,953.36
2018-03-26T03:48:12.474Z,953.39
2018-03-26T03:49:12.450Z,953.39
2018-03-26T03:50:12.424Z,953.38
2018-03-26T03:51:12.400Z,953.41
2018-03-26T03:52:12.375Z,953.42
2018-03-26T03:53:12.352Z,953.43
2018-03-26T03:54:12.366Z,953.43
2018-03-26T03:55:12.306Z,953.43
2018-03-26T03:56:12.279Z,953.47
2018-03-26T03:57:12.254Z,953.49
2018-03-26T03:58:12.228Z,953.48
2018-03-26T03:59:12.205Z,953.49
2018-03-26T04:00:12.187Z,953.49
2018-03-26T04:01:12.157Z,953.50
2018-03-26T04:02:12.131Z,953.50
2018-03-26T04:03:12.108Z,953.55
2018-03-26T04:04:12.085Z,953.54
2018-03-26T04:05:12.059Z,953.59
2018-03-26T04:06:12.033Z,953.56
2018-03-26T04:07:12.009Z,953.56
2018-03-26T04:08:11.986Z,953.57
2018-03-26T04:09:11.962Z,953.58
2018-03-26T04:10:11.937Z,953.57
2018-03-26T04:11:11.912Z,953.60
2018-03-26T04:12:11.888Z,953.59
2018-03-26T04:13:11.864Z,953.60
2018-03-26T04:14:11.839Z,953.59
2018-03-26T04:15:11.814Z,953.62
2018-03-26T04:16:11.790Z,953.62
2018-03-26T04:17:11.767Z,953.59
2018-03-26T04:18:13.244Z,953.59
2018-03-26T04:19:11.716Z,953.64
2018-03-26T04:20:11.694Z,953.62
2018-03-26T04:21:11.668Z,953.62
2018-03-26T04:22:11.645Z,953.68
2018-03-26T04:23:11.621Z,953.69
2018-03-26T04:24:11.597Z,953.68
2018-03-26T04:25:11.573Z,953.71
2018-03-26T04:26:11.548Z,953.69
2018-03-26T04:27:11.529Z,953.72
2018-03-26T04:28:11.498Z,953.73
2018-03-26T04:29:11.479Z,953.73
2018-03-26T04:30:11.450Z,953.76
2018-03-26T04:31:11.426Z,953.81
2018-03-26T04:32:11.402Z,953.76
2018-03-26T04:33:11.376Z,953.75
2018-03-26T04:34:11.352Z,953.77
2018-03-26T04:35:11.328Z,953.79
2018-03-26T04:36:11.305Z,953.79
2018-03-26T04:37:11.280Z,953.81
2018-03-26T04:38:11.254Z,953.79
2018-03-26T04:39:11.229Z,953.80
2018-03-26T04:40:11.955Z,953.83
2018-03-26T04:41:11.180Z,953.89
2018-03-26T04:42:11.156Z,953.84
2018-03-26T04:43:11.134Z,953.88
2018-03-26T04:44:11.108Z,953.89
2018-03-26T04:45:11.083Z,953.88
2018-03-26T04:46:11.057Z,953.91
2018-03-26T04:47:11.034Z,953.91
2018-03-26T04:48:11.010Z,953.91
2018-03-26T04:49:10.985Z,953.94
2018-03-26T04:50:10.960Z,953.91
2018-03-26T04:51:10.934Z,953.91
2018-03-26T04:52:10.911Z,953.95
2018-03-26T04:53:10.887Z,953.93
2018-03-26T04:54:10.861Z,953.96
2018-03-26T04:55:10.835Z,953.93
2018-03-26T04:56:10.813Z,953.94
2018-03-26T04:57:10.789Z,953.97
2018-03-26T04:58:10.763Z,953.94
2018-03-26T04:59:10.739Z,953.98
2018-03-26T05:00:10.714Z,954.00
2018-03-26T05:01:10.688Z,953.99
2018-03-26T05:02:10.677Z,953.97
2018-03-26T05:03:10.640Z,954.01
2018-03-26T05:04:10.616Z,953.99
2018-03-26T05:05:10.594Z,954.01
2018-03-26T05:06:10.567Z,953.99
2018-03-26T05:07:11.298Z,954.01
2018-03-26T05:08:10.518Z,954.03
2018-03-26T05:09:10.493Z,954.03
2018-03-26T05:10:10.468Z,954.05
2018-03-26T05:11:10.445Z,954.04
2018-03-26T05:12:10.419Z,954.04
2018-03-26T05:13:10.395Z,954.06
2018-03-26T05:14:10.368Z,954.05
2018-03-26T05:15:10.345Z,954.05
2018-03-26T05:16:10.320Z,954.03
2018-03-26T05:17:10.296Z,954.05
2018-03-26T05:18:10.271Z,954.07
2018-03-26T05:19:10.246Z,954.08
2018-03-26T05:20:10.222Z,954.10
2018-03-26T05:21:10.199Z,954.08
2018-03-26T05:22:10.174Z,954.09
2018-03-26T05:23:10.148Z,954.13
2018-03-26T05:24:10.124Z,954.14
2018-03-26T05:25:10.099Z,954.14
2018-03-26T05:26:10.074Z,954.17
2018-03-26T05:27:10.051Z,954.15
2018-03-26T05:28:10.026Z,954.16
2018-03-26T05:29:10.002Z,954.21
2018-03-26T05:30:09.975Z,954.19
2018-03-26T05:31:10.024Z,954.20
2018-03-26T05:32:09.926Z,954.23
2018-03-26T05:33:09.903Z,954.24
2018-03-26T05:34:09.878Z,954.21
2018-03-26T05:35:09.853Z,954.23
2018-03-26T05:36:09.838Z,954.21
2018-03-26T05:37:09.805Z,954.23
2018-03-26T05:38:09.779Z,954.24
2018-03-26T05:39:09.755Z,954.27
2018-03-26T05:40:09.730Z,954.26
2018-03-26T05:41:09.707Z,954.27
2018-03-26T05:42:09.680Z,954.30
2018-03-26T05:43:09.655Z,954.31
2018-03-26T05:44:09.632Z,954.32
2018-03-26T05:45:09.608Z,954.31
2018-03-26T05:46:09.582Z,954.35
2018-03-26T05:47:09.558Z,954.33
2018-03-26T05:48:09.534Z,954.32
2018-03-26T05:49:10.270Z,954.40
2018-03-26T05:50:09.484Z,954.37
2018-03-26T05:51:09.459Z,954.39
2018-03-26T05:52:09.465Z,954.41
2018-03-26T05:53:09.412Z,954.37
2018-03-26T05:54:09.386Z,954.42
2018-03-26T05:55:09.362Z,954.43
2018-03-26T05:56:09.343Z,954.47
2018-03-26T05:57:09.315Z,954.44
2018-03-26T05:58:09.288Z,954.48
2018-03-26T05:59:09.264Z,954.49
2018-03-26T06:00:09.240Z,954.54
2018-03-26T06:01:09.215Z,954.52
2018-03-26T06:02:09.207Z,954.54
2018-03-26T06:03:09.165Z,954.57
2018-03-26T06:04:09.142Z,954.60
2018-03-26T06:05:09.117Z,954.63
2018-03-26T06:06:09.095Z,954.62
2018-03-26T06:07:09.068Z,954.61
2018-03-26T06:08:09.043Z,954.61
2018-03-26T06:09:09.019Z,954.66
2018-03-26T06:10:08.994Z,954.67
2018-03-26T06:11:08.970Z,954.67
2018-03-26T06:12:08.945Z,954.66
2018-03-26T06:13:08.921Z,954.71
2018-03-26T06:14:08.895Z,954.74
2018-03-26T06:15:08.872Z,954.71
2018-03-26T06:16:08.847Z,954.76
2018-03-26T06:17:08.821Z,954.75
2018-03-26T06:18:08.796Z,954.73
2018-03-26T06:19:08.838Z,954.73
2018-03-26T06:20:08.746Z,954.74
2018-03-26T06:21:08.721Z,954.79
2018-03-26T06:22:08.746Z,954.79
2018-03-26T06:23:08.673Z,954.73
2018-03-26T06:24:08.651Z,954.73
2018-03-26T06:25:10.123Z,954.71
2018-03-26T06:26:08.596Z,954.71
2018-03-26T06:27:08.572Z,954.70
2018-03-26T06:28:08.549Z,954.70
2018-03-26T06:29:08.525Z,954.71
2018-03-26T06:30:08.498Z,954.69
2018-03-26T06:31:10.724Z,954.74
2018-03-26T06:32:08.449Z,954.72
2018-03-26T06:33:08.425Z,954.78
2018-03-26T06:34:08.400Z,954.76
2018-03-26T06:35:08.375Z,954.77
2018-03-26T06:36:08.351Z,954.79
2018-03-26T06:37:08.325Z,954.81
2018-03-26T06:38:08.300Z,954.81
2018-03-26T06:39:08.275Z,954.81
2018-03-26T06:40:08.306Z,954.82
2018-03-26T06:41:08.226Z,954.81
2018-03-26T06:42:08.207Z,954.85
2018-03-26T06:43:08.178Z,954.87
2018-03-26T06:44:08.162Z,954.89
2018-03-26T06:45:08.129Z,954.87
2018-03-26T06:46:08.103Z,954.89
2018-03-26T06:47:08.079Z,954.92
2018-03-26T06:48:08.805Z,954.94
2018-03-26T06:49:08.032Z,954.94
2018-03-26T06:50:08.005Z,954.97
2018-03-26T06:51:07.979Z,955.01
2018-03-26T06:52:07.955Z,955.00
2018-03-26T06:53:07.933Z,955.00
2018-03-26T06:54:07.906Z,955.03
2018-03-26T06:55:07.882Z,955.03
2018-03-26T06:56:07.857Z,955.04
2018-03-26T06:57:07.832Z,955.02
2018-03-26T06:58:07.808Z,955.06
2018-03-26T06:59:07.783Z,955.10
2018-03-26T07:00:07.759Z,955.06
2018-03-26T07:01:07.737Z,955.07
2018-03-26T07:02:07.710Z,955.09
2018-03-26T07:03:07.685Z,955.07
2018-03-26T07:04:07.661Z,955.10
2018-03-26T07:05:07.641Z,955.07
2018-03-26T07:06:07.611Z,955.07
2018-03-26T07:07:07.587Z,955.09
2018-03-26T07:08:07.562Z,955.12
2018-03-26T07:09:07.539Z,955.12
2018-03-26T07:10:08.264Z,955.16
2018-03-26T07:11:07.489Z,955.13
2018-03-26T07:12:07.463Z,955.19
2018-03-26T07:13:07.440Z,955.20
2018-03-26T07:14:07.416Z,955.23
2018-03-26T07:15:07.391Z,955.24
2018-03-26T07:16:07.365Z,955.24
2018-03-26T07:17:07.342Z,955.23
2018-03-26T07:18:07.316Z,955.23
2018-03-26T07:19:07.292Z,955.24
2018-03-26T07:20:07.267Z,955.25
2018-03-26T07:21:07.244Z,955.29
2018-03-26T07:22:07.219Z,955.27
2018-03-26T07:23:07.194Z,955.28
2018-03-26T07:24:07.174Z,955.30
2018-03-26T07:25:07.145Z,955.35
2018-03-26T07:26:07.120Z,955.33
2018-03-26T07:27:07.096Z,955.38
2018-03-26T07:28:07.072Z,955.39
2018-03-26T07:29:07.048Z,955.37
2018-03-26T07:30:07.023Z,955.41
2018-03-26T07:31:06.996Z,955.43
2018-03-26T07:32:07.724Z,955.43
2018-03-26T07:33:06.948Z,955.46
2018-03-26T07:34:06.923Z,955.44
2018-03-26T07:35:06.900Z,955.43
2018-03-26T07:36:06.875Z,955.40
2018-03-26T07:37:06.850Z,955.43
2018-03-26T07:38:06.826Z,955.43
2018-03-26T07:39:06.800Z,955.43
2018-03-26T07:40:06.775Z,955.45
2018-03-26T07:41:06.806Z,955.43
2018-03-26T07:42:06.727Z,955.45
2018-03-26T07:43:06.713Z,955.48
2018-03-26T07:44:06.678Z,955.46
2018-03-26T07:45:06.654Z,955.45
2018-03-26T07:46:06.629Z,955.49
2018-03-26T07:47:06.604Z,955.50
2018-03-26T07:48:06.580Z,955.53
2018-03-26T07:49:06.555Z,955.53
2018-03-26T07:50:06.532Z,955.56
2018-03-26T07:51:06.512Z,955.54
2018-03-26T07:52:06.483Z,955.55
2018-03-26T07:53:06.466Z,955.54
2018-03-26T07:54:06.432Z,955.55
2018-03-26T07:55:06.409Z,955.54
2018-03-26T07:56:06.386Z,955.55
2018-03-26T07:57:06.397Z,955.55
2018-03-26T07:58:06.337Z,955.57
2018-03-26T07:59:06.313Z,955.57
2018-03-26T08:00:06.289Z,955.60
2018-03-26T08:01:06.265Z,955.61
2018-03-26T08:02:06.240Z,955.62
2018-03-26T08:03:06.215Z,955.62
2018-03-26T08:04:06.192Z,955.62
2018-03-26T08:05:06.168Z,955.65
2018-03-26T08:06:06.143Z,955.67
2018-03-26T08:07:06.117Z,955.65
2018-03-26T08:08:06.093Z,955.62
2018-03-26T08:09:06.070Z,955.68
2018-03-26T08:10:06.046Z,955.66
2018-03-26T08:11:06.022Z,955.73
2018-03-26T08:12:05.998Z,955.72
2018-03-26T08:13:05.973Z,955.75
2018-03-26T08:14:05.949Z,955.75
2018-03-26T08:15:05.924Z,955.74
2018-03-26T08:16:05.902Z,955.77
2018-03-26T08:17:05.916Z,955.79
2018-03-26T08:18:05.851Z,955.82
2018-03-26T08:19:05.829Z,955.83
2018-03-26T08:20:05.804Z,955.83
2018-03-26T08:21:05.781Z,955.87
2018-03-26T08:22:05.757Z,955.84
2018-03-26T08:23:05.732Z,955.86
2018-03-26T08:24:05.712Z,955.91
2018-03-26T08:25:05.686Z,955.85
2018-03-26T08:26:05.660Z,955.86
2018-03-26T08:27:05.636Z,955.89
2018-03-26T08:28:05.612Z,955.89
2018-03-26T08:29:05.588Z,955.93
2018-03-26T08:30:05.564Z,955.92
2018-03-26T08:31:05.541Z,955.92
2018-03-26T08:32:06.470Z,955.90
2018-03-26T08:33:05.491Z,955.93
2018-03-26T08:34:05.466Z,955.96
2018-03-26T08:35:05.444Z,955.99
2018-03-26T08:36:05.420Z,956.00
2018-03-26T08:37:05.395Z,956.01
2018-03-26T08:38:05.375Z,956.02
2018-03-26T08:39:05.348Z,956.03
2018-03-26T08:40:05.325Z,956.01
2018-03-26T08:41:05.300Z,956.03
2018-03-26T08:42:05.276Z,956.08
2018-03-26T08:43:05.263Z,956.09
2018-03-26T08:44:05.228Z,956.12
2018-03-26T08:45:05.205Z,956.10
2018-03-26T08:46:05.180Z,956.10
2018-03-26T08:47:05.155Z,956.11
2018-03-26T08:48:05.131Z,956.11
2018-03-26T08:49:05.109Z,956.14
2018-03-26T08:50:05.254Z,956.12
2018-03-26T08:51:05.060Z,956.15
2018-03-26T08:52:05.037Z,956.17
2018-03-26T08:53:05.019Z,956.17
2018-03-26T08:54:04.989Z,956.19
2018-03-26T08:55:04.964Z,956.16
2018-03-26T08:56:04.942Z,956.16
2018-03-26T08:57:07.169Z,956.18
2018-03-26T08:58:04.896Z,956.22
2018-03-26T08:59:04.871Z,956.21
2018-03-26T09:00:04.849Z,956.25
2018-03-26T09:01:04.824Z,956.21
2018-03-26T09:02:04.798Z,956.23
2018-03-26T09:03:07.785Z,956.23
2018-03-26T09:04:04.751Z,956.23
2018-03-26T09:05:04.729Z,956.23
2018-03-26T09:06:04.704Z,956.26
2018-03-26T09:07:04.681Z,956.29
2018-03-26T09:08:04.657Z,956.28
2018-03-26T09:09:04.634Z,956.29
2018-03-26T09:10:04.609Z,956.28
2018-03-26T09:11:04.587Z,956.31
2018-03-26T09:12:04.569Z,956.32
2018-03-26T09:13:04.539Z,956.34
2018-03-26T09:14:04.516Z,956.32
2018-03-26T09:15:04.492Z,956.34
2018-03-26T09:16:04.469Z,956.36
2018-03-26T09:17:04.446Z,956.33
2018-03-26T09:18:04.426Z,956.34
2018-03-26T09:19:04.398Z,956.36
2018-03-26T09:20:04.376Z,956.39
2018-03-26T09:21:04.356Z,956.37
2018-03-26T09:22:04.328Z,956.41
2018-03-26T09:23:04.304Z,956.37
2018-03-26T09:24:04.281Z,956.42
2018-03-26T09:25:04.259Z,956.39
2018-03-26T09:26:04.261Z,956.39
2018-03-26T09:27:04.211Z,956.41
2018-03-26T09:28:04.188Z,956.45
2018-03-26T09:29:04.167Z,956.44
2018-03-26T09:30:04.141Z,956.44
2018-03-26T09:31:04.167Z,956.45
2018-03-26T09:32:04.094Z,956.45
2018-03-26T09:33:04.072Z,956.45
2018-03-26T09:34:04.046Z,956.44
2018-03-26T09:35:04.023Z,956.46
2018-03-26T09:36:04.001Z,956.46
2018-03-26T09:37:03.985Z,956.50
2018-03-26T09:38:03.955Z,956.51
2018-03-26T09:39:03.931Z,956.52
2018-03-26T09:40:03.908Z,956.50
2018-03-26T09:41:04.638Z,956.52
2018-03-26T09:42:03.863Z,956.51
2018-03-26T09:43:03.839Z,956.54
2018-03-26T09:44:03.816Z,956.57
2018-03-26T09:45:03.797Z,956.56
2018-03-26T09:46:03.770Z,956.59
2018-03-26T09:47:03.747Z,956.58
2018-03-26T09:48:03.724Z,956.57
2018-03-26T09:49:03.702Z,956.56
2018-03-26T09:50:03.678Z,956.61
2018-03-26T09:51:03.656Z,956.56
2018-03-26T09:52:03.632Z,956.56
2018-03-26T09:53:03.610Z,956.56
2018-03-26T09:54:03.587Z,956.56
2018-03-26T09:55:03.564Z,956.61
2018-03-26T09:56:03.544Z,956.58
2018-03-26T09:57:03.521Z,956.62
2018-03-26T09:58:03.495Z,956.63
2018-03-26T09:59:03.473Z,956.62
2018-03-26T10:00:03.449Z,956.60
2018-03-26T10:01:03.428Z,956.60
2018-03-26T10:02:03.408Z,956.63
2018-03-26T10:03:03.429Z,956.62
2018-03-26T10:04:03.361Z,956.59
2018-03-26T10:05:03.341Z,956.62
2018-03-26T10:06:03.313Z,956.54
2018-03-26T10:07:03.292Z,956.55
2018-03-26T10:08:03.271Z,956.55
2018-03-26T10:09:03.249Z,956.57
2018-03-26T10:10:03.225Z,956.58
2018-03-26T10:11:03.208Z,956.57
2018-03-26T10:12:03.181Z,956.59
2018-03-26T10:13:03.158Z,956.61
2018-03-26T10:14:03.136Z,956.63
2018-03-26T10:15:03.115Z,956.61
2018-03-26T10:16:03.098Z,956.59
2018-03-26T10:17:03.069Z,956.60
2018-03-26T10:18:03.046Z,956.60
2018-03-26T10:19:03.025Z,956.60
2018-03-26T10:20:03.004Z,956.63
2018-03-26T10:21:02.980Z,956.63
2018-03-26T10:22:02.957Z,956.67
2018-03-26T10:23:02.936Z,956.66
2018-03-26T10:24:02.914Z,956.63
2018-03-26T10:25:02.890Z,956.65
2018-03-26T10:26:02.880Z,956.62
2018-03-26T10:27:02.846Z,956.68
2018-03-26T10:28:02.824Z,956.66
2018-03-26T10:29:02.802Z,956.68
2018-03-26T10:30:02.782Z,956.67
2018-03-26T10:31:02.758Z,956.69
2018-03-26T10:32:02.737Z,956.67
2018-03-26T10:33:03.464Z,956.67
2018-03-26T10:34:02.690Z,956.68
2018-03-26T10:35:02.668Z,956.71
2018-03-26T10:36:02.647Z,956.70
2018-03-26T10:37:02.629Z,956.69
2018-03-26T10:38:02.601Z,956.70
2018-03-26T10:39:02.581Z,956.72
2018-03-26T10:40:02.560Z,956.72
2018-03-26T10:41:02.538Z,956.69
2018-03-26T10:42:02.515Z,956.72
2018-03-26T10:43:02.494Z,956.68
2018-03-26T10:44:05.475Z,956.74
2018-03-26T10:45:02.451Z,956.75
2018-03-26T10:46:02.427Z,956.74
2018-03-26T10:47:02.410Z,956.76
2018-03-26T10:48:02.388Z,956.71
2018-03-26T10:49:02.363Z,956.75
2018-03-26T10:50:03.844Z,956.72
2018-03-26T10:51:02.323Z,956.72
2018-03-26T10:52:02.300Z,956.74
2018-03-26T10:53:02.279Z,956.71
2018-03-26T10:54:02.258Z,956.69
2018-03-26T10:55:02.238Z,956.69
2018-03-26T10:56:02.965Z,956.65
2018-03-26T10:57:02.196Z,956.72
2018-03-26T10:58:02.172Z,956.71
2018-03-26T10:59:02.152Z,956.69
2018-03-26T11:00:02.132Z,956.67
2018-03-26T11:01:02.110Z,956.69
2018-03-26T11:02:02.094Z,956.69
2018-03-26T11:03:02.077Z,956.71
2018-03-26T11:04:02.048Z,956.68
2018-03-26T11:05:02.027Z,956.64
2018-03-26T11:06:02.004Z,956.66
2018-03-26T11:07:03.487Z,956.63
2018-03-26T11:08:01.964Z,956.65
2018-03-26T11:09:01.945Z,956.63
2018-03-26T11:10:01.924Z,956.65
2018-03-26T11:11:01.904Z,956.62
2018-03-26T11:12:01.884Z,956.61
2018-03-26T11:13:01.863Z,956.59
2018-03-26T11:14:01.840Z,956.55
2018-03-26T11:15:01.820Z,956.56
2018-03-26T11:16:01.801Z,956.56
2018-03-26T11:17:01.785Z,956.53
2018-03-26T11:18:01.760Z,956.52
2018-03-26T11:19:01.739Z,956.52
2018-03-26T11:20:01.719Z,956.51
2018-03-26T11:21:01.702Z,956.54
2018-03-26T11:22:01.678Z,956.53
2018-03-26T11:23:01.661Z,956.50
2018-03-26T11:24:05.390Z,956.51
2018-03-26T11:25:01.617Z,956.49
2018-03-26T11:26:01.595Z,956.50
2018-03-26T11:27:01.574Z,956.56
2018-03-26T11:28:01.575Z,956.53
2018-03-26T11:29:01.535Z,956.57
2018-03-26T11:30:02.267Z,956.53
2018-03-26T11:31:01.492Z,956.57
2018-03-26T11:32:01.474Z,956.52
2018-03-26T11:33:01.453Z,956.51
2018-03-26T11:34:01.432Z,956.53
2018-03-26T11:35:01.410Z,956.46
2018-03-26T11:36:01.389Z,956.54
2018-03-26T11:37:01.368Z,956.49
2018-03-26T11:38:01.345Z,956.46
2018-03-26T11:39:01.326Z,956.47
2018-03-26T11:40:01.305Z,956.45
2018-03-26T11:41:01.287Z,956.43
2018-03-26T11:42:01.263Z,956.43
2018-03-26T11:43:01.249Z,956.45
2018-03-26T11:44:01.223Z,956.41
2018-03-26T11:45:01.202Z,956.45
2018-03-26T11:46:01.179Z,956.45
2018-03-26T11:47:01.160Z,956.48
2018-03-26T11:48:01.141Z,956.44
2018-03-26T11:49:01.119Z,956.48
2018-03-26T11:50:01.102Z,956.51
2018-03-26T11:51:01.077Z,956.51
2018-03-26T11:52:01.056Z,956.50
2018-03-26T11:53:01.035Z,956.44
2018-03-26T11:54:01.013Z,956.47
2018-03-26T11:55:00.995Z,956.47
2018-03-26T11:56:03.226Z,956.49
2018-03-26T11:57:00.952Z,956.47
2018-03-26T11:58:00.931Z,956.48
2018-03-26T11:59:00.910Z,956.50
2018-03-26T12:00:00.892Z,956.43
2018-03-26T12:01:00.872Z,956.41
2018-03-26T12:02:01.602Z,956.41
2018-03-26T12:03:00.831Z,956.40
2018-03-26T12:04:00.810Z,956.35
2018-03-26T12:05:00.790Z,956.37
2018-03-26T12:06:00.768Z,956.38
2018-03-26T12:07:00.749Z,956.36
2018-03-26T12:08:00.729Z,956.31
2018-03-26T12:09:00.709Z,956.33
2018-03-26T12:10:00.688Z,956.35
2018-03-26T12:11:00.667Z,956.36
2018-03-26T12:12:00.647Z,956.32
2018-03-26T12:13:00.630Z,956.29
2018-03-26T12:14:00.605Z,956.32
2018-03-26T12:15:00.583Z,956.33
2018-03-26T12:16:00.564Z,956.33
2018-03-26T12:17:00.544Z,956.35
2018-03-26T12:18:04.275Z,956.33
2018-03-26T12:19:00.501Z,956.29
2018-03-26T12:20:00.483Z,956.29
2018-03-26T12:21:00.458Z,956.31
2018-03-26T12:22:00.438Z,956.32
2018-03-26T12:23:00.417Z,956.33
2018-03-26T12:24:02.646Z,956.33
2018-03-26T12:25:00.374Z,956.33
2018-03-26T12:26:00.352Z,956.39
2018-03-26T12:27:00.330Z,956.38
2018-03-26T12:28:00.308Z,956.43